Time;durP1;ratioP1;P1;durP2;ratioP2;P2;SDS_P1;SDS_P2;PMS_P1;PMS_P2;Temp;Humidity;BMP_temperature;BMP_pressure;BME280_temperature;BME280_humidity;BME280_pressure;Samples;Min_cycle;Max_cycle;Signal;HPM_P1;HPM_P2
2021/12/23 00:01:43;;;;;;;;;;;22.80;17.70;;;;;;5120916;28;19924;-59
2021/12/23 00:04:10;;;;;;;;;;;23.00;17.60;;;;;;5121511;28;19977;-58
2021/12/23 00:06:36;;;;;;;;;;;22.70;17.80;;;;;;5127023;28;20016;-54
2021/12/23 00:09:04;;;;;;;;;;;21.20;19.10;;;;;;5121323;28;20025;-58
2021/12/23 00:11:30;;;;;;;;;;;22.10;18.30;;;;;;5126776;28;19923;-59
2021/12/23 00:14:04;;;;;;;;;;;22.60;17.90;;;;;;5102712;28;20343;-59
2021/12/23 00:17:16;;;;;;;;;;;22.80;17.60;;;;;;5120887;28;19930;-58
2021/12/23 00:24:28;;;;;;;;;;;20.60;19.70;;;;;;5121262;27;19937;-53
2021/12/23 00:26:53;;;;;;;;;;;22.00;18.30;;;;;;5126532;28;19950;-55
2021/12/23 00:29:19;;;;;;;;;;;22.70;17.80;;;;;;5121266;28;19924;-59
2021/12/23 00:31:45;;;;;;;;;;;22.80;17.60;;;;;;5120549;28;20367;-58
2021/12/23 00:34:11;;;;;;;;;;;23.10;17.50;;;;;;5126188;28;20344;-56
2021/12/23 00:36:40;;;;;;;;;;;22.80;17.60;;;;;;5120674;28;20379;-54
2021/12/23 00:39:07;;;;;;;;;;;20.90;19.50;;;;;;5120305;28;20178;-59
2021/12/23 00:41:33;;;;;;;;;;;22.00;18.40;;;;;;5108236;28;19930;-61
2021/12/23 00:43:59;;;;;;;;;;;22.60;17.90;;;;;;5120792;28;20082;-58
2021/12/23 00:46:25;;;;;;;;;;;22.80;17.60;;;;;;5126251;28;20450;-58
2021/12/23 00:48:51;;;;;;;;;;;23.10;17.50;;;;;;5120618;28;19934;-57
2021/12/23 00:51:18;;;;;;;;;;;23.20;17.40;;;;;;5120712;28;19966;-53
2021/12/23 00:53:45;;;;;;;;;;;20.50;19.50;;;;;;5125609;28;19968;-58
2021/12/23 00:56:11;;;;;;;;;;;21.70;18.60;;;;;;5120173;28;20434;-51
2021/12/23 00:58:37;;;;;;;;;;;22.40;18.00;;;;;;5120224;28;19933;-55
2021/12/23 01:01:03;;;;;;;;;;;22.70;17.70;;;;;;5126150;28;19988;-57
2021/12/23 01:03:29;;;;;;;;;;;22.90;17.50;;;;;;5120462;28;19927;-55
2021/12/23 01:05:55;;;;;;;;;;;23.10;17.40;;;;;;5124275;28;20242;-59
2021/12/23 01:08:21;;;;;;;;;;;21.60;18.40;;;;;;5122585;28;19930;-56
2021/12/23 01:10:49;;;;;;;;;;;21.50;18.70;;;;;;5120179;28;19950;-57
2021/12/23 01:13:17;;;;;;;;;;;22.30;18.00;;;;;;5125275;28;19927;-59
2021/12/23 01:15:59;;;;;;;;;;;22.70;17.70;;;;;;5119597;28;20060;-55
2021/12/23 01:18:25;;;;;;;;;;;23.00;17.50;;;;;;5116491;28;20435;-58
2021/12/23 01:20:52;;;;;;;;;;;23.10;17.40;;;;;;5125685;28;19923;-55
2021/12/23 01:23:19;;;;;;;;;;;22.30;17.90;;;;;;5120408;28;20026;-53
2021/12/23 01:25:44;;;;;;;;;;;21.40;18.80;;;;;;5120381;28;20043;-58
2021/12/23 01:28:10;;;;;;;;;;;22.30;18.00;;;;;;5125472;28;19928;-54
2021/12/23 01:30:37;;;;;;;;;;;22.70;17.60;;;;;;5119714;28;19932;-57
2021/12/23 01:33:03;;;;;;;;;;;22.80;17.50;;;;;;5122187;28;19934;-59
2021/12/23 01:35:29;;;;;;;;;;;23.10;17.40;;;;;;5123384;28;20030;-59
2021/12/23 01:37:55;;;;;;;;;;;22.90;17.40;;;;;;5101622;28;19923;-52
2021/12/23 01:40:21;;;;;;;;;;;20.80;19.30;;;;;;5125451;28;19927;-56
2021/12/23 01:42:47;;;;;;;;;;;21.90;18.20;;;;;;5101666;28;19935;-56
2021/12/23 01:45:20;;;;;;;;;;;22.60;17.70;;;;;;5119784;28;19966;-57
2021/12/23 01:47:46;;;;;;;;;;;22.80;17.50;;;;;;5125114;28;20359;-55
2021/12/23 01:50:12;;;;;;;;;;;23.00;17.30;;;;;;5119478;28;19923;-55
2021/12/23 01:52:38;;;;;;;;;;;23.20;17.20;;;;;;5101132;28;19935;-54
2021/12/23 01:55:05;;;;;;;;;;;20.90;18.90;;;;;;5125271;28;19928;-52
2021/12/23 01:57:31;;;;;;;;;;;21.30;18.80;;;;;;5119659;28;19933;-52
2021/12/23 01:59:57;;;;;;;;;;;22.30;17.90;;;;;;5125323;28;19927;-54
2021/12/23 02:02:23;;;;;;;;;;;22.70;17.60;;;;;;5119787;28;19972;-54
2021/12/23 02:04:49;;;;;;;;;;;22.90;17.40;;;;;;5119511;28;19927;-58
2021/12/23 02:07:15;;;;;;;;;;;23.10;17.30;;;;;;5124930;28;19972;-60
2021/12/23 02:09:40;;;;;;;;;;;22.80;17.50;;;;;;5119803;28;20011;-51
2021/12/23 02:12:06;;;;;;;;;;;20.80;19.30;;;;;;5119222;28;20215;-58
2021/12/23 02:14:32;;;;;;;;;;;21.90;18.20;;;;;;5125100;28;19924;-53
2021/12/23 02:17:01;;;;;;;;;;;22.50;17.70;;;;;;5119461;28;19957;-52
2021/12/23 02:19:27;;;;;;;;;;;22.80;17.50;;;;;;5123473;28;20374;-57
2021/12/23 02:21:53;;;;;;;;;;;23.10;17.20;;;;;;5121186;28;19930;-54
2021/12/23 02:24:18;;;;;;;;;;;22.80;17.40;;;;;;5119472;28;19934;-53
2021/12/23 02:26:44;;;;;;;;;;;20.80;19.20;;;;;;5124641;28;19935;-57
2021/12/23 02:29:10;;;;;;;;;;;22.00;18.10;;;;;;5119173;28;19978;-52
2021/12/23 02:31:36;;;;;;;;;;;22.50;17.60;;;;;;5119441;28;19963;-56
2021/12/23 02:34:01;;;;;;;;;;;22.80;17.40;;;;;;5125273;28;19972;-52
2021/12/23 02:36:30;;;;;;;;;;;23.00;17.30;;;;;;5119387;28;20308;-55
2021/12/23 02:38:56;;;;;;;;;;;23.10;17.10;;;;;;5120227;28;19930;-57
2021/12/23 02:41:22;;;;;;;;;;;20.70;19.10;;;;;;5124208;28;19924;-53
2021/12/23 02:43:48;;;;;;;;;;;21.90;18.10;;;;;;5119132;28;19930;-56
2021/12/23 02:46:17;;;;;;;;;;;22.50;17.50;;;;;;5124177;28;20355;-54
2021/12/23 02:48:43;;;;;;;;;;;22.80;17.30;;;;;;5119289;27;19932;-52
2021/12/23 02:51:10;;;;;;;;;;;23.10;17.10;;;;;;5122868;28;19992;-53
2021/12/23 02:53:36;;;;;;;;;;;22.80;17.20;;;;;;5128050;28;19972;-53
2021/12/23 02:56:03;;;;;;;;;;;20.50;19.30;;;;;;5122597;28;19924;-54
2021/12/23 02:58:29;;;;;;;;;;;21.90;18.00;;;;;;5122303;28;19938;-56
2021/12/23 03:00:55;;;;;;;;;;;22.50;17.50;;;;;;5127867;28;20367;-54
2021/12/23 03:03:21;;;;;;;;;;;22.80;17.30;;;;;;5122051;28;19924;-54
2021/12/23 03:05:47;;;;;;;;;;;23.00;17.10;;;;;;5127391;28;20345;-52
2021/12/23 03:08:13;;;;;;;;;;;23.20;17.00;;;;;;5122279;28;20334;-52
2021/12/23 03:10:39;;;;;;;;;;;21.00;18.50;;;;;;5122532;28;19927;-54
2021/12/23 03:13:05;;;;;;;;;;;21.50;18.20;;;;;;5127624;28;19923;-52
2021/12/23 03:15:31;;;;;;;;;;;22.30;17.50;;;;;;5122227;28;19954;-58
2021/12/23 03:17:56;;;;;;;;;;;22.70;17.30;;;;;;5121803;28;20224;-53
2021/12/23 03:20:22;;;;;;;;;;;22.90;17.10;;;;;;5127326;28;19931;-57
2021/12/23 03:22:48;;;;;;;;;;;23.10;17.00;;;;;;5121808;28;19930;-53
2021/12/23 03:25:14;;;;;;;;;;;23.00;16.90;;;;;;5126372;28;19923;-60
2021/12/23 03:27:39;;;;;;;;;;;20.50;19.00;;;;;;5123319;28;19927;-53
2021/12/23 03:30:05;;;;;;;;;;;21.80;17.90;;;;;;5122072;28;19923;-55
2021/12/23 03:32:31;;;;;;;;;;;22.50;17.30;;;;;;5127735;28;19966;-56
2021/12/23 03:34:57;;;;;;;;;;;22.80;17.10;;;;;;5122081;28;19929;-57
2021/12/23 03:37:23;;;;;;;;;;;22.90;17.00;;;;;;5121778;28;20404;-59
2021/12/23 03:39:51;;;;;;;;;;;23.20;16.80;;;;;;5126966;28;20340;-56
2021/12/23 03:42:17;;;;;;;;;;;21.50;17.90;;;;;;5121552;28;19971;-51
2021/12/23 03:44:43;;;;;;;;;;;21.70;18.00;;;;;;5122786;28;19923;-60
2021/12/23 03:47:08;;;;;;;;;;;22.40;17.30;;;;;;5126227;28;19950;-52
2021/12/23 03:49:34;;;;;;;;;;;22.80;17.10;;;;;;5121526;28;19977;-52
2021/12/23 03:52:00;;;;;;;;;;;23.00;16.90;;;;;;5126995;28;19928;-56
2021/12/23 03:54:26;;;;;;;;;;;23.20;16.80;;;;;;5121429;28;19971;-51
2021/12/23 03:56:51;;;;;;;;;;;22.00;17.50;;;;;;5121498;28;19927;-52
2021/12/23 03:59:17;;;;;;;;;;;21.30;18.30;;;;;;5126489;27;19928;-55
2021/12/23 04:01:43;;;;;;;;;;;22.10;17.50;;;;;;5120939;28;19958;-58
2021/12/23 04:04:09;;;;;;;;;;;22.60;17.20;;;;;;5121387;28;20272;-57
2021/12/23 04:06:34;;;;;;;;;;;22.90;16.90;;;;;;5126872;28;19938;-54
2021/12/23 04:09:00;;;;;;;;;;;23.10;16.80;;;;;;5121523;28;20184;-56
2021/12/23 04:11:26;;;;;;;;;;;22.50;17.20;;;;;;5126839;28;19927;-51
2021/12/23 04:13:53;;;;;;;;;;;21.30;18.30;;;;;;5121147;28;19927;-56
2021/12/23 04:16:19;;;;;;;;;;;22.20;17.50;;;;;;5121192;28;19967;-56
2021/12/23 04:18:46;;;;;;;;;;;22.70;17.10;;;;;;5126519;28;19924;-58
2021/12/23 04:21:13;;;;;;;;;;;22.90;16.90;;;;;;5102362;28;19934;-57
2021/12/23 04:23:39;;;;;;;;;;;23.10;16.70;;;;;;5121306;28;20027;-54
2021/12/23 04:26:07;;;;;;;;;;;20.80;18.50;;;;;;5126376;28;19923;-52
2021/12/23 04:28:35;;;;;;;;;;;21.50;18.00;;;;;;5121015;28;19927;-58
2021/12/23 04:31:00;;;;;;;;;;;22.30;17.30;;;;;;5126016;28;19930;-56
2021/12/23 04:33:26;;;;;;;;;;;22.80;17.00;;;;;;5121214;28;20138;-55
2021/12/23 04:35:52;;;;;;;;;;;23.00;16.80;;;;;;5120749;28;19923;-55
2021/12/23 04:38:18;;;;;;;;;;;23.00;16.80;;;;;;5126226;28;20010;-53
2021/12/23 04:40:44;;;;;;;;;;;20.50;18.90;;;;;;5120823;28;19924;-51
2021/12/23 04:43:09;;;;;;;;;;;21.80;17.90;;;;;;5121162;28;19930;-50
2021/12/23 04:45:35;;;;;;;;;;;22.50;17.30;;;;;;5126263;28;19934;-53
2021/12/23 04:48:01;;;;;;;;;;;22.80;17.00;;;;;;5120874;28;20305;-55
2021/12/23 04:50:27;;;;;;;;;;;23.00;16.80;;;;;;5123667;28;19930;-58
2021/12/23 04:52:52;;;;;;;;;;;23.20;16.70;;;;;;5103938;28;19923;-55
2021/12/23 04:55:18;;;;;;;;;;;20.90;18.40;;;;;;5100471;28;19930;-53
2021/12/23 04:57:44;;;;;;;;;;;21.50;18.10;;;;;;5125430;28;19927;-56
2021/12/23 05:00:11;;;;;;;;;;;22.40;17.30;;;;;;5120666;28;19931;-55
2021/12/23 05:02:37;;;;;;;;;;;22.80;17.00;;;;;;5120503;28;19927;-52
2021/12/23 05:05:03;;;;;;;;;;;23.00;16.80;;;;;;5126115;28;19934;-53
2021/12/23 05:07:29;;;;;;;;;;;23.00;16.80;;;;;;5120188;28;19924;-50
2021/12/23 05:09:55;;;;;;;;;;;20.60;18.80;;;;;;5120899;28;20355;-57
2021/12/23 05:12:20;;;;;;;;;;;21.80;17.80;;;;;;5124775;27;19940;-51
2021/12/23 05:14:46;;;;;;;;;;;22.40;17.30;;;;;;5120194;28;19923;-54
2021/12/23 05:17:12;;;;;;;;;;;22.80;17.00;;;;;;5125499;28;19946;-51
2021/12/23 05:19:38;;;;;;;;;;;23.00;16.90;;;;;;5120493;28;20366;-53
2021/12/23 05:22:04;;;;;;;;;;;23.20;16.80;;;;;;5120323;28;19927;-52
2021/12/23 05:24:29;;;;;;;;;;;21.20;18.10;;;;;;5125782;28;20295;-53
2021/12/23 05:26:55;;;;;;;;;;;21.50;18.10;;;;;;5120142;28;19923;-55
2021/12/23 05:29:21;;;;;;;;;;;22.30;17.40;;;;;;5120324;28;19981;-54
2021/12/23 05:31:47;;;;;;;;;;;22.60;17.10;;;;;;5125212;28;20018;-53
2021/12/23 05:34:12;;;;;;;;;;;22.90;16.90;;;;;;5119562;28;19951;-58
2021/12/23 05:36:38;;;;;;;;;;;23.10;16.70;;;;;;5105835;28;19931;-55
2021/12/23 05:39:04;;;;;;;;;;;22.60;17.10;;;;;;5120296;28;19947;-55
2021/12/23 05:41:30;;;;;;;;;;;21.00;18.50;;;;;;5120043;28;19923;-50
2021/12/23 05:43:56;;;;;;;;;;;22.00;17.60;;;;;;5125326;28;19973;-53
2021/12/23 05:46:22;;;;;;;;;;;22.60;17.20;;;;;;5119674;28;20363;-55
2021/12/23 05:48:47;;;;;;;;;;;22.90;16.90;;;;;;5119624;28;20266;-54
2021/12/23 05:51:13;;;;;;;;;;;23.00;16.80;;;;;;5106520;28;19923;-54
2021/12/23 05:53:39;;;;;;;;;;;23.20;16.70;;;;;;5119494;28;20195;-53
2021/12/23 05:56:05;;;;;;;;;;;21.20;18.20;;;;;;5125358;28;19928;-55
2021/12/23 05:58:30;;;;;;;;;;;21.60;18.00;;;;;;5119717;28;19935;-58
2021/12/23 06:00:59;;;;;;;;;;;22.40;17.30;;;;;;5119899;28;20391;-56
2021/12/23 06:03:25;;;;;;;;;;;22.70;17.10;;;;;;5125248;28;19927;-57
2021/12/23 06:05:51;;;;;;;;;;;22.90;16.90;;;;;;5101478;28;19950;-58
2021/12/23 06:08:17;;;;;;;;;;;23.10;16.80;;;;;;5119224;28;20151;-58
2021/12/23 06:10:42;;;;;;;;;;;23.00;16.80;;;;;;5124863;28;19992;-49
2021/12/23 06:13:08;;;;;;;;;;;20.50;19.00;;;;;;5119538;28;19923;-52
2021/12/23 06:15:34;;;;;;;;;;;21.80;17.90;;;;;;5123851;28;19934;-58
2021/12/23 06:18:00;;;;;;;;;;;22.50;17.30;;;;;;5121362;28;19923;-52
2021/12/23 06:20:26;;;;;;;;;;;22.80;17.00;;;;;;5119569;28;19927;-59
2021/12/23 06:22:51;;;;;;;;;;;23.00;16.90;;;;;;5125721;27;19945;-57
2021/12/23 06:25:17;;;;;;;;;;;23.20;16.80;;;;;;5122760;28;19976;-53
2021/12/23 06:27:43;;;;;;;;;;;22.60;17.20;;;;;;5122917;28;19984;-52
2021/12/23 06:30:19;;;;;;;;;;;21.10;18.50;;;;;;5128057;28;19931;-57
2021/12/23 06:32:46;;;;;;;;;;;22.00;17.70;;;;;;5122977;28;20293;-57
2021/12/23 06:35:12;;;;;;;;;;;22.60;17.20;;;;;;5122985;28;19924;-57
2021/12/23 06:37:37;;;;;;;;;;;22.90;17.00;;;;;;5128370;28;19930;-57
2021/12/23 06:40:03;;;;;;;;;;;23.00;16.90;;;;;;5104579;28;20313;-57
2021/12/23 06:42:29;;;;;;;;;;;23.10;16.80;;;;;;5128393;28;19923;-56
2021/12/23 06:44:55;;;;;;;;;;;20.70;18.80;;;;;;5122758;28;19931;-53
2021/12/23 06:47:21;;;;;;;;;;;21.80;17.90;;;;;;5122341;28;19931;-60
2021/12/23 06:49:47;;;;;;;;;;;22.50;17.30;;;;;;5127782;28;19923;-59
2021/12/23 06:52:13;;;;;;;;;;;22.80;17.00;;;;;;5122752;28;19927;-55
2021/12/23 06:54:42;;;;;;;;;;;23.00;16.90;;;;;;5122882;28;19924;-54
2021/12/23 06:57:08;;;;;;;;;;;23.10;16.80;;;;;;5128179;28;19935;-53
2021/12/23 06:59:34;;;;;;;;;;;21.00;18.40;;;;;;5122283;28;19994;-52
2021/12/23 07:02:00;;;;;;;;;;;21.60;18.00;;;;;;5127015;28;19923;-58
2021/12/23 07:04:30;;;;;;;;;;;22.50;17.30;;;;;;5123176;28;19927;-56
2021/12/23 07:07:07;;;;;;;;;;;22.70;17.10;;;;;;5121866;28;19930;-54
2021/12/23 07:09:33;;;;;;;;;;;22.90;17.00;;;;;;5128024;28;19927;-54
2021/12/23 07:11:59;;;;;;;;;;;23.20;16.80;;;;;;5122406;28;20446;-57
2021/12/23 07:14:25;;;;;;;;;;;23.00;16.80;;;;;;5122258;28;19928;-51
2021/12/23 07:16:50;;;;;;;;;;;20.60;18.90;;;;;;5127619;28;19976;-57
2021/12/23 07:19:16;;;;;;;;;;;21.80;17.90;;;;;;5122019;28;19923;-55
2021/12/23 07:21:42;;;;;;;;;;;22.50;17.30;;;;;;5121766;28;20239;-53
2021/12/23 07:24:08;;;;;;;;;;;22.80;17.00;;;;;;5127289;28;19930;-53
2021/12/23 07:26:33;;;;;;;;;;;23.00;16.90;;;;;;5121920;28;19924;-54
2021/12/23 07:28:59;;;;;;;;;;;23.10;16.80;;;;;;5109874;28;19969;-60
2021/12/23 07:31:25;;;;;;;;;;;22.60;17.10;;;;;;5122804;28;19968;-53
2021/12/23 07:33:51;;;;;;;;;;;21.30;18.30;;;;;;5121948;27;19924;-50
2021/12/23 07:36:17;;;;;;;;;;;22.20;17.50;;;;;;5126837;28;19928;-58
2021/12/23 07:38:43;;;;;;;;;;;22.70;17.10;;;;;;5121810;28;20265;-51
2021/12/23 07:41:08;;;;;;;;;;;22.90;16.90;;;;;;5121712;28;20165;-56
2021/12/23 07:46:03;;;;;;;;;;;22.70;17.00;;;;;;5101268;28;19970;-52
2021/12/23 07:48:30;;;;;;;;;;;21.30;18.40;;;;;;5125621;28;19923;-60
2021/12/23 07:50:56;;;;;;;;;;;22.30;17.50;;;;;;5124389;28;19928;-59
2021/12/23 07:53:22;;;;;;;;;;;22.70;17.10;;;;;;5121897;28;19923;-60
2021/12/23 07:55:48;;;;;;;;;;;23.00;16.90;;;;;;5127157;28;19927;-57
2021/12/23 07:58:14;;;;;;;;;;;23.20;16.80;;;;;;5121683;28;20402;-53
2021/12/23 08:00:40;;;;;;;;;;;21.00;18.40;;;;;;5121287;28;20741;-54
2021/12/23 08:03:05;;;;;;;;;;;21.80;17.90;;;;;;5126417;28;19924;-57
2021/12/23 08:05:31;;;;;;;;;;;22.60;17.30;;;;;;5103319;28;19923;-59
2021/12/23 08:07:57;;;;;;;;;;;22.90;17.10;;;;;;5122447;28;20426;-60
2021/12/23 08:10:23;;;;;;;;;;;23.10;16.90;;;;;;5126605;28;19978;-55
2021/12/23 08:12:49;;;;;;;;;;;20.90;18.40;;;;;;5121407;28;20018;-52
2021/12/23 08:15:14;;;;;;;;;;;21.80;18.00;;;;;;5126602;28;19930;-58
2021/12/23 08:17:40;;;;;;;;;;;22.50;17.40;;;;;;5120689;28;20368;-57
2021/12/23 08:20:06;;;;;;;;;;;22.80;17.20;;;;;;5120874;28;19924;-58
2021/12/23 08:22:33;;;;;;;;;;;23.00;17.00;;;;;;5126456;28;19924;-59
2021/12/23 08:24:59;;;;;;;;;;;22.30;17.50;;;;;;5121477;28;20435;-57
2021/12/23 08:27:27;;;;;;;;;;;21.50;18.30;;;;;;5121019;28;19967;-55
2021/12/23 08:29:53;;;;;;;;;;;22.40;17.60;;;;;;5126606;28;19949;-57
2021/12/23 08:32:19;;;;;;;;;;;22.70;17.30;;;;;;5121001;28;19927;-58
2021/12/23 08:34:45;;;;;;;;;;;23.00;17.10;;;;;;5126544;28;19923;-58
2021/12/23 08:37:12;;;;;;;;;;;22.50;17.40;;;;;;5121157;28;19927;-52
2021/12/23 08:39:38;;;;;;;;;;;21.30;18.50;;;;;;5120533;28;19923;-48
2021/12/23 08:42:04;;;;;;;;;;;22.30;17.70;;;;;;5126520;28;19923;-53
2021/12/23 08:44:30;;;;;;;;;;;22.70;17.30;;;;;;5120828;28;19937;-55
2021/12/23 08:46:55;;;;;;;;;;;23.00;17.20;;;;;;5119584;27;20415;-56
2021/12/23 08:49:21;;;;;;;;;;;23.20;17.10;;;;;;5126680;28;19927;-53
2021/12/23 08:51:47;;;;;;;;;;;20.60;19.10;;;;;;5120646;28;19938;-50
2021/12/23 08:54:13;;;;;;;;;;;22.00;18.10;;;;;;5107415;28;20329;-60
2021/12/23 08:56:39;;;;;;;;;;;22.60;17.60;;;;;;5120597;28;19923;-51
2021/12/23 08:59:05;;;;;;;;;;;22.90;17.30;;;;;;5120082;28;20043;-53
2021/12/23 09:01:31;;;;;;;;;;;23.10;17.20;;;;;;5126425;28;19930;-52
2021/12/23 09:03:56;;;;;;;;;;;23.30;17.00;;;;;;5120979;28;19940;-52
2021/12/23 09:06:22;;;;;;;;;;;20.80;19.30;;;;;;5120380;28;19927;-56
2021/12/23 09:08:48;;;;;;;;;;;22.20;18.10;;;;;;5125595;28;19930;-57
2021/12/23 09:11:14;;;;;;;;;;;22.70;17.60;;;;;;5120077;28;19923;-59
2021/12/23 09:13:40;;;;;;;;;;;23.00;17.40;;;;;;5123841;28;19927;-63
2021/12/23 09:16:06;;;;;;;;;;;22.20;18.10;;;;;;5122513;28;20038;-53
2021/12/23 09:18:31;;;;;;;;;;;21.50;18.90;;;;;;5120301;28;19923;-47
2021/12/23 09:20:57;;;;;;;;;;;22.40;18.10;;;;;;5125888;28;19970;-48
2021/12/23 09:23:23;;;;;;;;;;;22.80;17.80;;;;;;5120269;28;20030;-47
2021/12/23 09:25:51;;;;;;;;;;;23.00;17.60;;;;;;5120223;28;20022;-48
2021/12/23 09:28:38;;;;;;;;;;;23.30;17.50;;;;;;5125867;28;19931;-55
2021/12/23 09:33:49;;;;;;;;;;;22.10;18.40;;;;;;5119800;28;20437;-57
2021/12/23 09:36:15;;;;;;;;;;;22.70;17.90;;;;;;5125132;28;19924;-53
2021/12/23 09:38:41;;;;;;;;;;;23.00;17.60;;;;;;5120213;28;20310;-55
2021/12/23 09:41:10;;;;;;;;;;;23.30;17.50;;;;;;5120429;28;19931;-59
2021/12/23 09:43:36;;;;;;;;;;;21.80;18.70;;;;;;5107484;28;19924;-53
2021/12/23 09:46:03;;;;;;;;;;;21.80;18.90;;;;;;5119813;28;19944;-49
2021/12/23 09:48:29;;;;;;;;;;;22.60;18.20;;;;;;5123585;28;19923;-58
2021/12/23 09:50:55;;;;;;;;;;;22.90;17.80;;;;;;5121743;28;19931;-52
2021/12/23 09:53:21;;;;;;;;;;;23.20;17.70;;;;;;5101269;28;19949;-59
2021/12/23 09:55:47;;;;;;;;;;;22.30;18.30;;;;;;5125452;28;19927;-56
2021/12/23 09:58:12;;;;;;;;;;;21.50;19.30;;;;;;5102877;28;20037;-50
2021/12/23 10:00:39;;;;;;;;;;;22.40;18.40;;;;;;5123446;28;19954;-51
2021/12/23 10:03:05;;;;;;;;;;;22.80;18.10;;;;;;5128924;28;19927;-48
2021/12/23 10:05:31;;;;;;;;;;;23.10;17.80;;;;;;5104935;28;19930;-58
2021/12/23 10:07:57;;;;;;;;;;;22.90;17.90;;;;;;5105860;28;19930;-59
2021/12/23 10:10:26;;;;;;;;;;;20.90;20.00;;;;;;5127820;28;20374;-56
2021/12/23 10:37:21;;;;;;;;;;;21.20;20.10;;;;;;5122903;28;20218;-54
2021/12/23 10:40:07;;;;;;;;;;;22.20;19.10;;;;;;5118880;28;19927;-50
2021/12/23 10:42:33;;;;;;;;;;;22.70;18.70;;;;;;5128184;28;19923;-51
2021/12/23 10:45:00;;;;;;;;;;;23.00;18.40;;;;;;5122336;28;20264;-50
2021/12/23 10:47:52;;;;;;;;;;;23.20;18.20;;;;;;5122241;28;20302;-60
2021/12/23 10:50:19;;;;;;;;;;;22.00;19.30;;;;;;5094323;28;19972;-53
2021/12/23 10:52:57;;;;;;;;;;;21.60;20.00;;;;;;5122720;28;19923;-52
2021/12/23 10:58:09;;;;;;;;;;;22.80;18.80;;;;;;5109803;28;19934;-57
2021/12/23 11:00:36;;;;;;;;;;;23.10;18.50;;;;;;5109289;28;19923;-61
2021/12/23 11:03:17;;;;;;;;;;;21.00;20.50;;;;;;5103872;28;19934;-56
2021/12/23 11:05:55;;;;;;;;;;;21.60;20.20;;;;;;5127600;28;20337;-55
2021/12/23 11:08:36;;;;;;;;;;;22.50;19.30;;;;;;5124536;28;19923;-54
2021/12/23 11:11:32;;;;;;;;;;;22.90;18.90;;;;;;5121653;28;19927;-56
2021/12/23 11:32:04;;;;;;;;;;;21.10;21.50;;;;;;5087157;28;20379;-56
2021/12/23 11:40:58;;;;;;;;;;;22.90;20.00;;;;;;5103477;28;19927;-55
2021/12/23 11:45:53;;;;;;;;;;;21.90;21.20;;;;;;5121284;28;20300;-55
2021/12/23 11:48:19;;;;;;;;;;;22.60;20.40;;;;;;5108483;28;20310;-54
2021/12/23 11:51:05;;;;;;;;;;;23.00;20.10;;;;;;5121702;28;20026;-61
2021/12/23 11:53:31;;;;;;;;;;;23.10;20.00;;;;;;5121910;28;19930;-58
2021/12/23 11:55:57;;;;;;;;;;;20.30;23.20;;;;;;5126890;28;19962;-56
2021/12/23 11:58:24;;;;;;;;;;;21.90;21.20;;;;;;5121540;28;20435;-60
2021/12/23 12:01:09;;;;;;;;;;;22.60;20.50;;;;;;5121551;28;19970;-54
2021/12/23 12:03:51;;;;;;;;;;;22.90;20.10;;;;;;5126314;28;20047;-59
2021/12/23 12:06:17;;;;;;;;;;;22.60;20.30;;;;;;5121657;28;19928;-56
2021/12/23 12:08:43;;;;;;;;;;;21.00;22.10;;;;;;5121424;28;20023;-58
2021/12/23 12:11:12;;;;;;;;;;;22.20;20.80;;;;;;5126882;28;19935;-60
2021/12/23 12:13:38;;;;;;;;;;;22.70;20.30;;;;;;5121261;28;20390;-58
2021/12/23 12:16:05;;;;;;;;;;;23.00;19.90;;;;;;5121159;28;19966;-58
2021/12/23 12:18:31;;;;;;;;;;;23.20;19.80;;;;;;5107850;28;19929;-61
2021/12/23 12:21:02;;;;;;;;;;;20.40;22.60;;;;;;5102382;28;19954;-58
2021/12/23 12:23:31;;;;;;;;;;;21.90;21.10;;;;;;5121542;28;19924;-58
2021/12/23 12:26:00;;;;;;;;;;;22.60;20.40;;;;;;5108401;28;19939;-58
2021/12/23 12:28:27;;;;;;;;;;;23.00;20.00;;;;;;5121167;28;19930;-59
2021/12/23 12:30:54;;;;;;;;;;;23.30;19.80;;;;;;5125984;28;21307;-61
2021/12/23 12:33:23;;;;;;;;;;;21.30;21.70;;;;;;5121094;28;19924;-55
2021/12/23 12:36:09;;;;;;;;;;;21.40;22.00;;;;;;5120910;28;19931;-59
2021/12/23 12:38:38;;;;;;;;;;;22.40;20.80;;;;;;5125915;28;19968;-54
2021/12/23 12:41:05;;;;;;;;;;;22.90;20.30;;;;;;5120408;28;19924;-57
2021/12/23 12:43:46;;;;;;;;;;;23.20;20.00;;;;;;5121390;28;19924;-61
2021/12/23 12:46:13;;;;;;;;;;;20.50;22.70;;;;;;5126152;28;20379;-57
2021/12/23 12:48:59;;;;;;;;;;;21.80;21.60;;;;;;5120747;28;19927;-55
2021/12/23 12:51:30;;;;;;;;;;;22.60;20.80;;;;;;5120338;28;19975;-54
2021/12/23 12:54:02;;;;;;;;;;;23.00;20.30;;;;;;5125903;28;20026;-56
2021/12/23 12:56:28;;;;;;;;;;;23.20;20.10;;;;;;5120403;28;19975;-60
2021/12/23 12:58:54;;;;;;;;;;;20.70;22.70;;;;;;5120199;28;19924;-57
2021/12/23 13:01:49;;;;;;;;;;;21.80;21.80;;;;;;5126112;28;20412;-56
2021/12/23 13:04:32;;;;;;;;;;;22.60;20.90;;;;;;5098183;28;20022;-58
2021/12/23 13:06:58;;;;;;;;;;;23.00;20.40;;;;;;5120623;28;19933;-58
2021/12/23 13:09:28;;;;;;;;;;;22.50;21.00;;;;;;5107448;28;19930;-59
2021/12/23 13:11:58;;;;;;;;;;;21.10;22.70;;;;;;5119953;28;19923;-57
2021/12/23 13:14:25;;;;;;;;;;;22.20;21.40;;;;;;5120116;28;19928;-58
2021/12/23 13:16:52;;;;;;;;;;;22.80;20.80;;;;;;5105464;28;19976;-53
2021/12/23 13:19:17;;;;;;;;;;;23.10;20.50;;;;;;5120319;28;19923;-47
2021/12/23 13:21:44;;;;;;;;;;;23.20;20.30;;;;;;5120236;28;20168;-46
2021/12/23 13:24:11;;;;;;;;;;;23.20;20.50;;;;;;5125683;28;19924;-50
2021/12/23 13:26:36;;;;;;;;;;;23.20;20.50;;;;;;5120281;28;20376;-53
2021/12/23 13:29:04;;;;;;;;;;;23.30;20.50;;;;;;5125516;28;19924;-51
2021/12/23 13:31:31;;;;;;;;;;;23.30;20.50;;;;;;5102491;28;20271;-58
2021/12/23 13:33:57;;;;;;;;;;;23.20;20.70;;;;;;5119320;27;19924;-52
2021/12/23 13:36:28;;;;;;;;;;;23.00;20.90;;;;;;5124941;28;20335;-50
2021/12/23 13:38:58;;;;;;;;;;;22.90;21.20;;;;;;5120244;28;20358;-53
2021/12/23 13:41:26;;;;;;;;;;;22.80;21.40;;;;;;5119952;28;20386;-53
2021/12/23 13:43:52;;;;;;;;;;;22.80;21.50;;;;;;5125640;28;19977;-51
2021/12/23 13:46:18;;;;;;;;;;;22.70;21.70;;;;;;5119909;28;19982;-50
2021/12/23 13:48:55;;;;;;;;;;;22.70;21.70;;;;;;5119533;28;20278;-54
2021/12/23 13:51:21;;;;;;;;;;;22.60;21.90;;;;;;5125209;28;19924;-49
2021/12/23 13:53:47;;;;;;;;;;;22.60;22.00;;;;;;5119418;28;19952;-53
2021/12/23 13:56:13;;;;;;;;;;;22.70;22.00;;;;;;5123436;28;19927;-54
2021/12/23 13:58:39;;;;;;;;;;;22.60;22.20;;;;;;5122114;28;20026;-48
2021/12/23 14:01:05;;;;;;;;;;;22.70;22.10;;;;;;5119610;28;20354;-50
2021/12/23 14:03:30;;;;;;;;;;;22.70;22.00;;;;;;5125326;28;19976;-50
2021/12/23 14:05:56;;;;;;;;;;;22.70;22.10;;;;;;5119816;28;19924;-48
2021/12/23 14:08:23;;;;;;;;;;;22.80;22.10;;;;;;5119682;28;20014;-53
2021/12/23 14:10:48;;;;;;;;;;;22.80;22.10;;;;;;5124865;28;19923;-53
2021/12/23 14:13:18;;;;;;;;;;;22.90;22.00;;;;;;5119132;28;19934;-51
2021/12/23 14:15:45;;;;;;;;;;;22.90;22.00;;;;;;5119888;28;20029;-48
2021/12/23 14:23:31;;;;;;;;;;;22.90;22.10;;;;;;5121131;28;19933;-55
2021/12/23 14:26:02;;;;;;;;;;;22.90;22.10;;;;;;5124746;28;20027;-50
2021/12/23 14:28:29;;;;;;;;;;;22.80;22.30;;;;;;5099482;28;20387;-50
2021/12/23 14:30:59;;;;;;;;;;;22.80;22.30;;;;;;5124469;28;20064;-52
2021/12/23 14:33:26;;;;;;;;;;;22.80;22.30;;;;;;5119858;28;19934;-49
2021/12/23 14:35:53;;;;;;;;;;;22.90;22.30;;;;;;5119416;28;19924;-48
2021/12/23 14:38:23;;;;;;;;;;;22.80;22.30;;;;;;5124768;28;19973;-47
2021/12/23 14:40:58;;;;;;;;;;;22.80;22.30;;;;;;5119255;28;19929;-48
2021/12/23 14:43:24;;;;;;;;;;;22.90;22.30;;;;;;5119474;27;19930;-49
2021/12/23 14:45:56;;;;;;;;;;;22.90;22.30;;;;;;5128046;28;19924;-54
2021/12/23 14:48:22;;;;;;;;;;;22.80;22.50;;;;;;5122325;28;19948;-51
2021/12/23 14:50:51;;;;;;;;;;;22.80;22.40;;;;;;5122259;28;19931;-50
2021/12/23 14:53:18;;;;;;;;;;;22.90;22.40;;;;;;5128462;28;20351;-53
2021/12/23 14:55:52;;;;;;;;;;;22.80;22.50;;;;;;5122820;28;19927;-51
2021/12/23 14:58:17;;;;;;;;;;;22.90;22.40;;;;;;5123102;28;20034;-54
2021/12/23 15:00:44;;;;;;;;;;;22.90;22.30;;;;;;5127755;28;19927;-50
2021/12/23 15:03:10;;;;;;;;;;;22.90;22.40;;;;;;5122482;28;19929;-50
2021/12/23 15:05:44;;;;;;;;;;;22.90;22.50;;;;;;5127671;28;20073;-51
2021/12/23 15:08:15;;;;;;;;;;;22.90;22.50;;;;;;5121796;28;19923;-51
2021/12/23 15:10:45;;;;;;;;;;;22.90;22.50;;;;;;5122413;28;19975;-51
2021/12/23 15:13:15;;;;;;;;;;;22.90;22.40;;;;;;5127630;28;20026;-50
2021/12/23 15:15:41;;;;;;;;;;;23.00;22.40;;;;;;5122385;28;19930;-47
2021/12/23 15:18:16;;;;;;;;;;;22.90;22.40;;;;;;5122344;28;19924;-49
2021/12/23 15:20:46;;;;;;;;;;;23.00;22.30;;;;;;5110273;28;19927;-48
2021/12/23 15:23:12;;;;;;;;;;;23.00;22.30;;;;;;5121752;28;19929;-50
2021/12/23 15:25:38;;;;;;;;;;;23.00;22.40;;;;;;5121885;28;20348;-47
2021/12/23 15:28:04;;;;;;;;;;;23.10;22.30;;;;;;5127167;28;20304;-50